createdAt,value
2022-10-30T05:17:06.651Z,6.80
2022-10-30T05:19:33.483Z,7.05
2022-10-30T05:21:59.988Z,6.35
2022-10-30T05:24:26.440Z,7.05
2022-10-30T05:26:54.107Z,6.68
2022-10-30T05:29:20.944Z,6.95
2022-10-30T05:31:48.419Z,6.55
2022-10-30T05:34:14.796Z,6.75
2022-10-30T05:36:42.415Z,6.40
2022-10-30T05:39:09.829Z,6.60
2022-10-30T05:41:39.925Z,6.53
2022-10-30T05:44:07.274Z,7.75
2022-10-30T05:46:34.074Z,6.93
2022-10-30T05:49:17.997Z,6.88
2022-10-30T05:51:45.270Z,6.93
2022-10-30T05:54:11.989Z,5.55
2022-10-30T05:56:51.358Z,5.57
2022-10-30T05:59:18.680Z,6.25
2022-10-30T06:01:46.805Z,5.47
2022-10-30T06:04:13.325Z,5.50
2022-10-30T06:06:45.351Z,5.13
2022-10-30T06:09:12.852Z,5.82
2022-10-30T06:12:06.664Z,4.95
2022-10-30T06:14:43.623Z,4.88
2022-10-30T06:17:10.124Z,5.20
2022-10-30T06:19:56.792Z,5.90
2022-10-30T06:22:57.035Z,5.35
2022-10-30T06:25:33.116Z,5.07
2022-10-30T06:28:16.487Z,4.70
2022-10-30T06:30:42.997Z,5.45
2022-10-30T06:33:10.573Z,5.45
2022-10-30T06:35:40.127Z,4.03
2022-10-30T06:38:08.694Z,5.68
2022-10-30T06:40:35.652Z,4.70
2022-10-30T06:43:18.370Z,5.00
2022-10-30T06:45:58.140Z,4.57
2022-10-30T06:48:24.776Z,5.15
2022-10-30T06:50:58.988Z,4.47
2022-10-30T06:53:26.784Z,5.97
2022-10-30T06:55:59.172Z,5.93
2022-10-30T06:58:44.452Z,5.85
2022-10-30T07:01:29.591Z,4.75
2022-10-30T07:04:17.500Z,4.57
2022-10-30T07:06:44.591Z,4.93
2022-10-30T07:09:11.630Z,5.25
2022-10-30T07:11:42.124Z,5.43
2022-10-30T07:14:23.478Z,5.30
2022-10-30T07:17:11.758Z,4.53
2022-10-30T07:19:39.662Z,4.47
2022-10-30T07:22:06.151Z,5.07
2022-10-30T07:24:37.137Z,4.53
2022-10-30T07:27:29.925Z,4.85
2022-10-30T07:30:09.200Z,5.47
2022-10-30T07:33:10.145Z,6.07
2022-10-30T07:36:01.017Z,6.72
2022-10-30T07:38:51.880Z,7.20
2022-10-30T07:41:36.893Z,8.65
2022-10-30T07:44:32.014Z,8.55
2022-10-30T07:47:17.626Z,7.30
2022-10-30T07:49:49.078Z,7.18
2022-10-30T07:52:17.787Z,6.90
2022-10-30T07:54:46.978Z,8.32
2022-10-30T07:57:42.768Z,8.07
2022-10-30T08:00:28.075Z,7.28
2022-10-30T08:03:03.871Z,6.50
2022-10-30T08:05:54.914Z,7.60
2022-10-30T08:08:33.470Z,8.15
2022-10-30T08:11:10.888Z,7.45
2022-10-30T08:13:37.458Z,8.38
2022-10-30T08:16:03.957Z,7.32
2022-10-30T08:18:30.457Z,6.53
2022-10-30T08:20:56.951Z,7.28
2022-10-30T08:23:23.682Z,7.72
2022-10-30T08:25:50.153Z,8.18
2022-10-30T08:28:17.461Z,7.57
2022-10-30T08:30:44.631Z,8.20
2022-10-30T08:33:14.985Z,14.68
2022-10-30T08:35:58.995Z,16.00
2022-10-30T08:38:27.644Z,11.90
2022-10-30T08:41:12.178Z,8.80
2022-10-30T08:43:45.364Z,8.68
2022-10-30T08:46:11.908Z,9.15
2022-10-30T08:48:38.380Z,8.55
2022-10-30T08:51:07.057Z,9.90
2022-10-30T08:53:37.652Z,9.02
2022-10-30T08:56:09.560Z,10.07
2022-10-30T08:58:50.514Z,9.63
2022-10-30T09:01:19.054Z,16.27
2022-10-30T09:04:04.329Z,11.20
2022-10-30T09:06:53.883Z,11.73
2022-10-30T09:09:22.947Z,13.00
2022-10-30T09:11:52.296Z,11.93
2022-10-30T09:14:18.982Z,11.90
2022-10-30T09:16:45.495Z,11.70
2022-10-30T09:19:18.631Z,11.68
2022-10-30T09:21:46.273Z,10.32
2022-10-30T09:24:12.748Z,10.35
2022-10-30T09:26:39.167Z,9.35
2022-10-30T09:29:37.725Z,9.00
2022-10-30T09:32:10.073Z,9.00
2022-10-30T09:34:48.878Z,9.48
2022-10-30T09:37:23.144Z,10.13
2022-10-30T09:39:53.628Z,9.18
2022-10-30T09:42:39.127Z,10.80
2022-10-30T09:45:33.818Z,10.48
2022-10-30T09:48:06.382Z,9.80
2022-10-30T09:51:09.703Z,10.52
2022-10-30T09:54:05.713Z,9.80
2022-10-30T09:56:49.864Z,8.95
2022-10-30T09:59:54.854Z,10.40
2022-10-30T10:02:34.132Z,8.63
2022-10-30T10:05:17.370Z,9.05
2022-10-30T10:08:14.785Z,7.90
2022-10-30T10:11:08.726Z,9.20
2022-10-30T10:13:45.865Z,8.05
2022-10-30T10:16:35.257Z,9.13
2022-10-30T10:19:37.286Z,8.02
2022-10-30T10:22:18.850Z,7.68
2022-10-30T10:24:47.494Z,7.47
2022-10-30T10:27:36.293Z,8.07
2022-10-30T10:30:06.071Z,8.48
2022-10-30T10:32:48.993Z,7.72
2022-10-30T10:35:24.769Z,7.22
2022-10-30T10:37:57.857Z,7.38
2022-10-30T10:40:52.841Z,7.40
2022-10-30T10:43:28.673Z,7.15
2022-10-30T10:46:21.593Z,7.53
2022-10-30T10:49:10.748Z,6.93
2022-10-30T10:52:05.773Z,7.25
2022-10-30T10:54:41.834Z,7.45
2022-10-30T10:57:16.867Z,6.82
2022-10-30T10:59:52.945Z,8.55
2022-10-30T11:02:32.580Z,7.30
2022-10-30T11:05:12.690Z,9.68
2022-10-30T11:07:50.259Z,7.88
2022-10-30T11:10:19.316Z,7.07
2022-10-30T11:12:46.047Z,6.95
2022-10-30T11:15:26.416Z,7.72
2022-10-30T11:18:01.509Z,6.68
2022-10-30T11:20:40.957Z,7.30
2022-10-30T11:23:30.713Z,6.45
2022-10-30T11:25:57.192Z,6.80
2022-10-30T11:28:51.125Z,5.65
2022-10-30T11:31:30.201Z,6.07
2022-10-30T11:33:56.580Z,9.23
2022-10-30T11:36:25.034Z,7.35
2022-10-30T11:38:52.336Z,6.18
2022-10-30T11:41:20.368Z,6.22
2022-10-30T11:43:49.156Z,6.55
2022-10-30T11:46:22.453Z,5.93
2022-10-30T11:48:54.652Z,5.38
2022-10-30T11:51:40.001Z,6.18
2022-10-30T11:54:07.607Z,5.55
2022-10-30T11:56:35.851Z,5.95
2022-10-30T11:59:04.615Z,5.97
2022-10-30T12:02:04.414Z,4.93
2022-10-30T12:04:32.888Z,5.15
2022-10-30T12:07:29.150Z,4.32
2022-10-30T12:09:57.584Z,4.53
2022-10-30T12:12:28.886Z,5.53
2022-10-30T12:14:55.620Z,4.75
2022-10-30T12:17:22.877Z,4.97
2022-10-30T12:19:52.860Z,5.35
2022-10-30T12:22:30.145Z,4.43
2022-10-30T12:24:58.637Z,4.93
2022-10-30T12:27:25.850Z,5.20
2022-10-30T12:30:17.019Z,4.57
2022-10-30T12:32:58.238Z,4.70
2022-10-30T12:35:27.966Z,4.18
2022-10-30T12:37:54.861Z,4.45
2022-10-30T12:40:30.207Z,3.90
2022-10-30T12:43:12.357Z,4.20
2022-10-30T12:45:48.772Z,4.72
2022-10-30T12:48:37.248Z,4.75
2022-10-30T12:51:18.429Z,4.05
2022-10-30T12:54:20.224Z,5.10
2022-10-30T12:56:52.250Z,4.25
2022-10-30T12:59:34.950Z,4.28
2022-10-30T13:05:03.980Z,4.57
2022-10-30T13:07:45.527Z,4.03
2022-10-30T13:10:27.157Z,4.75
2022-10-30T13:13:01.895Z,4.65
2022-10-30T13:15:33.579Z,3.40
2022-10-30T13:18:13.829Z,3.93
2022-10-30T13:20:42.134Z,3.15
2022-10-30T13:23:19.563Z,5.50
2022-10-30T13:26:08.128Z,3.92
2022-10-30T13:28:52.362Z,4.03
2022-10-30T13:31:44.583Z,3.63
2022-10-30T13:34:39.737Z,3.50
2022-10-30T13:37:06.305Z,4.13
2022-10-30T13:39:46.758Z,3.70
2022-10-30T13:42:19.251Z,3.70
2022-10-30T13:44:58.271Z,3.80
2022-10-30T13:47:34.486Z,3.35
2022-10-30T13:50:12.640Z,5.90
2022-10-30T13:52:44.318Z,4.47
2022-10-30T13:55:21.214Z,4.05
2022-10-30T13:58:01.367Z,3.67
2022-10-30T14:01:07.067Z,2.92
2022-10-30T14:04:01.924Z,3.88
2022-10-30T14:06:42.935Z,4.15
2022-10-30T14:09:37.113Z,4.20
2022-10-30T14:12:41.345Z,4.38
2022-10-30T14:15:31.147Z,4.03
2022-10-30T14:18:28.118Z,4.00
2022-10-30T14:20:57.634Z,4.50
2022-10-30T14:23:37.628Z,3.88
2022-10-30T14:26:04.090Z,4.03
2022-10-30T14:28:32.475Z,4.32
2022-10-30T14:31:35.768Z,5.00
2022-10-30T14:34:02.397Z,4.47
2022-10-30T14:36:38.238Z,4.05
2022-10-30T14:39:10.763Z,5.68
2022-10-30T14:41:57.698Z,4.20
2022-10-30T14:45:12.775Z,3.85
2022-10-30T14:47:58.100Z,5.00
2022-10-30T14:50:27.511Z,4.68
2022-10-30T14:53:00.253Z,5.30
2022-10-30T14:55:33.409Z,4.80
2022-10-30T14:58:02.845Z,4.10
2022-10-30T15:00:35.219Z,4.70
2022-10-30T15:03:14.800Z,4.18
2022-10-30T15:05:44.551Z,3.70
2022-10-30T15:08:47.807Z,5.43
2022-10-30T15:11:26.866Z,4.45
2022-10-30T15:14:02.808Z,4.05
2022-10-30T15:16:30.688Z,3.88
2022-10-30T15:19:05.322Z,3.85
2022-10-30T15:21:39.492Z,4.20
2022-10-30T15:24:15.464Z,5.07
2022-10-30T15:26:45.488Z,4.13
2022-10-30T15:29:19.366Z,3.88
2022-10-30T15:31:45.806Z,5.65
2022-10-30T15:34:22.904Z,4.40
2022-10-30T15:36:49.394Z,3.72
2022-10-30T15:39:20.104Z,4.85
2022-10-30T15:41:53.918Z,5.20
2022-10-30T15:44:24.486Z,4.75
2022-10-30T15:46:53.296Z,5.75
2022-10-30T15:49:40.222Z,4.25
2022-10-30T15:52:20.609Z,4.90
2022-10-30T15:54:52.126Z,5.18
2022-10-30T15:58:01.036Z,5.18
2022-10-30T16:00:23.827Z,5.95
2022-10-30T16:03:01.708Z,5.20
2022-10-30T16:05:28.584Z,5.22
2022-10-30T16:07:57.640Z,5.88
2022-10-30T16:10:42.777Z,4.88
2022-10-30T16:13:21.916Z,14.13
2022-10-30T16:15:49.685Z,4.20
2022-10-30T16:18:23.807Z,4.65
2022-10-30T16:21:06.882Z,4.55
2022-10-30T16:23:49.199Z,6.00
2022-10-30T16:26:29.975Z,5.63
2022-10-30T16:28:57.617Z,4.90
2022-10-30T16:31:29.657Z,3.70
2022-10-30T16:33:58.484Z,4.65
2022-10-30T16:36:25.498Z,4.18
2022-10-30T16:38:52.375Z,5.75
2022-10-30T16:41:22.809Z,3.65
2022-10-30T16:44:26.867Z,4.18
2022-10-30T16:46:57.056Z,4.93
2022-10-30T16:49:27.661Z,3.90
2022-10-30T16:52:00.200Z,4.45
2022-10-30T16:55:17.538Z,4.43
2022-10-30T16:57:47.229Z,4.53
2022-10-30T17:00:25.954Z,4.80
2022-10-30T17:02:56.121Z,4.88
2022-10-30T17:05:36.906Z,5.75
2022-10-30T17:08:16.898Z,4.20
2022-10-30T17:11:00.703Z,5.90
2022-10-30T17:13:33.778Z,5.05
2022-10-30T17:16:24.670Z,5.55
2022-10-30T17:18:53.404Z,5.57
2022-10-30T17:21:25.869Z,5.60
2022-10-30T17:23:55.717Z,5.28
2022-10-30T17:26:22.230Z,5.85
2022-10-30T17:28:48.988Z,5.32
2022-10-30T17:31:19.576Z,11.15
2022-10-30T17:33:46.966Z,7.07
2022-10-30T17:36:13.936Z,7.82
2022-10-30T17:38:40.358Z,5.45
2022-10-30T17:41:08.256Z,5.55
2022-10-30T17:43:48.118Z,4.78
2022-10-30T17:46:19.236Z,5.53
2022-10-30T17:48:47.570Z,4.65
2022-10-30T17:51:15.273Z,4.80
2022-10-30T17:53:42.217Z,4.72
2022-10-30T17:56:15.965Z,4.95
2022-10-30T18:01:29.394Z,4.55
2022-10-30T18:03:56.327Z,4.68
2022-10-30T18:06:25.670Z,3.80
2022-10-30T18:08:53.236Z,4.55
2022-10-30T18:11:22.538Z,3.33
2022-10-30T18:13:50.857Z,4.63
2022-10-30T18:16:18.971Z,4.78
2022-10-30T18:18:45.864Z,4.63
2022-10-30T18:21:14.125Z,5.85
2022-10-30T18:23:55.953Z,5.25
2022-10-30T18:26:25.159Z,4.38
2022-10-30T18:28:56.929Z,5.25
2022-10-30T18:31:24.393Z,5.00
2022-10-30T18:33:54.011Z,5.30
2022-10-30T18:36:23.379Z,5.43
2022-10-30T18:38:50.539Z,6.00
2022-10-30T18:41:21.422Z,5.80
2022-10-30T18:43:47.954Z,15.93
2022-10-30T18:46:15.692Z,11.95
2022-10-30T18:48:42.567Z,6.82
2022-10-30T18:51:28.324Z,5.57
2022-10-30T18:53:56.790Z,4.85
2022-10-30T18:56:26.724Z,4.60
2022-10-30T18:58:58.426Z,5.05
2022-10-30T19:01:31.312Z,4.88
2022-10-30T19:04:00.722Z,5.35
2022-10-30T19:06:27.191Z,4.72
2022-10-30T19:08:53.687Z,4.88
2022-10-30T19:11:24.607Z,4.45
2022-10-30T19:13:53.268Z,4.70
2022-10-30T19:16:21.026Z,4.65
2022-10-30T19:18:48.371Z,5.05
2022-10-30T19:21:17.887Z,4.65
2022-10-30T19:23:44.682Z,4.82
2022-10-30T19:26:13.362Z,5.03
2022-10-30T19:28:40.995Z,5.13
2022-10-30T19:31:11.190Z,5.63
2022-10-30T19:33:37.642Z,5.95
2022-10-30T19:36:04.939Z,5.05
2022-10-30T19:38:32.593Z,4.57
2022-10-30T19:41:00.453Z,5.07
2022-10-30T19:43:27.022Z,6.32
2022-10-30T19:45:56.691Z,4.88
2022-10-30T19:48:47.629Z,5.70
2022-10-30T19:51:11.741Z,4.75
2022-10-30T19:53:39.523Z,4.70
2022-10-30T19:56:06.740Z,4.68
2022-10-30T19:58:33.164Z,4.63
2022-10-30T20:00:59.647Z,5.57
2022-10-30T20:03:26.206Z,5.13
2022-10-30T20:05:52.861Z,5.22
2022-10-30T20:08:21.801Z,4.95
2022-10-30T20:11:02.055Z,5.30
2022-10-30T20:13:29.803Z,4.70
2022-10-30T20:15:59.163Z,5.85
2022-10-30T20:18:30.218Z,7.15
2022-10-30T20:20:59.954Z,5.78
2022-10-30T20:23:27.297Z,6.47
2022-10-30T20:25:57.751Z,4.93
2022-10-30T20:28:35.312Z,5.35
2022-10-30T20:31:02.123Z,6.55
2022-10-30T20:33:28.776Z,5.70
2022-10-30T20:35:55.933Z,6.07
2022-10-30T20:38:26.335Z,7.32
2022-10-30T20:40:53.901Z,6.55
2022-10-30T20:43:24.871Z,7.72
2022-10-30T20:45:51.284Z,5.57
2022-10-30T20:48:17.753Z,5.35
2022-10-30T20:50:49.141Z,5.10
2022-10-30T20:53:17.145Z,5.30
2022-10-30T20:55:44.618Z,7.05
2022-10-30T20:58:11.258Z,6.32
2022-10-30T21:00:38.443Z,5.53
2022-10-30T21:03:05.854Z,6.45
2022-10-30T21:05:49.839Z,5.80
2022-10-30T21:08:16.283Z,7.30
2022-10-30T21:10:42.863Z,8.63
2022-10-30T21:13:10.991Z,7.80
2022-10-30T21:15:39.657Z,10.00
2022-10-30T21:18:06.302Z,9.82
2022-10-30T21:20:32.875Z,9.48
2022-10-30T21:23:00.401Z,6.72
2022-10-30T21:25:26.934Z,5.85
2022-10-30T21:27:56.341Z,5.35
2022-10-30T21:30:22.737Z,5.03
2022-10-30T21:32:49.144Z,4.55
2022-10-30T21:35:16.229Z,4.75
2022-10-30T21:37:42.682Z,4.78
2022-10-30T21:40:09.695Z,4.65
2022-10-30T21:42:36.094Z,4.43
2022-10-30T21:45:02.770Z,5.43
2022-10-30T21:47:29.196Z,7.40
2022-10-30T21:49:55.667Z,7.78
2022-10-30T21:52:22.159Z,4.07
2022-10-30T21:54:48.614Z,5.78
2022-10-30T21:57:15.080Z,5.45
2022-10-30T21:59:41.546Z,4.50
2022-10-30T22:02:13.457Z,4.35
2022-10-30T22:04:40.041Z,5.03
2022-10-30T22:07:06.658Z,4.85
2022-10-30T22:09:33.121Z,4.43
2022-10-30T22:11:59.524Z,4.80
2022-10-30T22:14:26.901Z,4.72
2022-10-30T22:16:53.354Z,4.32
2022-10-30T22:19:19.782Z,3.83
2022-10-30T22:21:46.212Z,4.85
2022-10-30T22:24:13.711Z,4.07
2022-10-30T22:26:40.294Z,3.85
2022-10-30T22:29:06.749Z,3.58
2022-10-30T22:31:33.514Z,3.95
2022-10-30T22:34:00.911Z,3.75
2022-10-30T22:36:30.138Z,4.20
2022-10-30T22:39:00.006Z,3.63
2022-10-30T22:41:31.399Z,4.00
2022-10-30T22:44:01.572Z,3.20
2022-10-30T22:46:29.648Z,4.50
2022-10-30T22:48:57.588Z,3.70
2022-10-30T22:51:25.342Z,4.18
2022-10-30T22:54:00.626Z,3.35
2022-10-30T22:56:31.062Z,4.78
2022-10-30T22:59:00.512Z,5.03
